Date,TemperatureHighF,TemperatureAvgF,TemperatureLowF,DewpointHighF,DewpointAvgF,DewpointLowF,HumidityHigh,HumidityAvg,HumidityLow,PressureMaxIn,PressureMinIn,WindSpeedMaxMPH,WindSpeedAvgMPH,GustSpeedMaxMPH,PrecipitationSumIn
2013-2-9,25.9,19.1,13.7,7.0,2.9,-1.0,58,50,41,30.31,30.05,7,1,11,0.00
2013-2-10,29.4,19.1,8.1,17.0,5.9,-1.0,70,57,41,30.47,30.29,3,0,7,0.07
2013-2-11,40.6,33.8,27.5,38.0,28.3,9.0,98,83,44,30.28,29.65,6,0,11,0.26
2013-2-12,37.3,34.6,30.6,30.0,25.4,20.0,74,69,64,29.91,29.66,8,2,17,0.03
2013-2-13,37.7,32.6,27.9,27.0,22.1,19.0,81,66,49,29.90,29.69,5,1,8,0.02
2013-2-14,39.3,32.1,24.7,27.0,23.2,20.0,88,71,51,29.94,29.69,5,0,7,0.00
2013-2-15,48.1,38.5,30.9,30.0,26.7,23.0,92,65,39,29.95,29.87,7,1,13,0.00
2013-2-16,32.9,28.0,23.1,30.0,19.8,10.0,94,73,55,29.96,29.76,6,1,9,0.05
2013-2-17,23.9,18.9,12.0,12.0,2.6,0.0,64,50,38,29.86,29.59,15,3,26,0.00
2013-2-18,30.5,20.8,11.6,12.0,4.1,0.0,66,50,31,30.18,29.86,8,2,16,0.00
2013-2-19,34.5,29.5,21.7,32.0,21.7,8.0,96,75,52,30.16,29.62,5,0,7,0.03
2013-2-20,32.0,24.0,19.8,30.0,13.8,7.0,91,66,49,29.89,29.64,10,2,19,0.01
2013-2-21,28.2,21.6,18.9,16.0,12.0,9.0,77,67,55,30.32,29.88,6,2,14,0.00
2013-2-22,31.2,26.5,19.7,23.0,19.6,15.0,89,76,63,30.40,30.26,6,1,7,0.01
2013-2-23,34.2,32.0,28.8,33.0,30.6,24.0,97,94,79,30.26,29.84,4,0,4,0.00
2013-2-24,41.8,33.5,29.0,38.0,29.2,20.0,98,85,68,29.94,29.73,5,1,13,0.01
2013-2-25,38.0,33.1,27.9,27.0,25.1,21.0,85,73,58,30.23,29.94,4,1,9,0.00
2013-2-26,38.9,32.7,25.4,28.0,25.1,22.0,92,75,58,30.29,29.99,5,1,11,0.00
2013-2-27,40.3,36.1,28.8,38.0,34.4,27.0,97,93,89,30.00,29.52,10,2,14,1.28
2013-2-28,39.6,35.3,33.0,38.0,34.1,30.0,98,95,86,29.59,29.53,6,0,8,0.08
2013-3-1,37.6,33.6,29.9,30.0,27.0,23.0,88,77,64,29.75,29.58,4,1,11,0.00
2013-3-2,34.1,29.6,24.9,24.0,21.8,18.0,80,73,64,29.75,29.68,6,2,12,0.01
2013-3-3,31.0,25.7,21.3,21.0,17.0,14.0,74,70,63,29.74,29.66,8,2,8,0.00
2013-3-4,33.6,27.8,23.5,22.0,18.9,16.0,79,70,59,29.89,29.72,11,2,16,0.00
2013-3-5,41.3,32.6,25.7,27.0,23.7,20.0,82,71,54,30.02,29.87,5,1,14,0.00
2013-3-6,38.7,35.2,32.7,32.0,27.3,24.0,84,73,67,30.05,29.96,7,2,13,0.00
2013-3-7,35.6,32.2,29.9,29.0,25.5,22.0,94,77,65,30.09,30.01,8,1,13,0.00
2013-3-8,41.0,33.7,29.2,34.0,28.1,23.0,91,80,61,30.23,30.01,8,2,15,0.13
2013-3-9,53.6,41.1,33.0,27.0,20.9,13.0,63,47,20,30.30,30.21,5,1,12,0.00
2013-3-10,49.6,39.7,30.5,31.0,24.3,17.0,74,55,39,30.34,30.22,6,1,9,0.00
2013-3-11,45.9,40.6,33.0,42.0,34.1,28.0,93,78,66,30.24,30.04,6,1,8,0.00
2013-3-12,50.7,45.5,35.9,50.0,44.4,33.0,98,96,87,30.04,29.64,6,1,9,2.53
2013-3-13,44.2,36.5,30.3,33.0,26.1,20.0,86,68,41,29.82,29.75,7,1,9,0.00
2013-3-14,30.4,25.4,20.5,26.0,11.7,8.0,87,57,48,29.87,29.79,11,3,13,0.00
2013-3-15,34.5,29.0,20.6,30.0,17.9,8.0,89,64,46,29.91,29.68,5,2,14,0.01
2013-3-16,32.6,28.9,24.3,26.0,19.9,9.0,92,70,38,29.88,29.75,6,1,9,0.00
2013-3-17,32.9,26.0,19.0,22.0,12.1,6.0,90,58,35,30.31,29.89,11,1,14,0.01
2013-3-18,30.3,24.0,15.5,24.0,11.4,1.0,94,62,33,30.41,30.07,5,1,9,0.00
2013-3-19,34.5,30.3,26.2,33.0,28.7,23.0,97,93,82,30.07,29.68,3,0,6,0.14
2013-3-20,35.5,28.2,24.1,23.0,18.7,15.0,87,68,44,29.82,29.74,5,1,14,0.10
2013-3-21,33.6,25.8,16.3,20.0,13.1,7.0,86,62,35,29.80,29.61,4,1,8,0.11
2013-3-22,34.2,27.6,19.1,22.0,18.3,11.0,86,69,56,29.80,29.68,7,2,11,0.06
2013-3-23,38.7,32.5,28.7,24.0,20.0,17.0,83,61,43,29.87,29.75,11,2,16,0.09
2013-3-24,41.2,33.8,27.1,24.0,20.7,18.0,73,59,43,29.90,29.72,8,2,12,0.07
2013-3-25,41.2,35.6,31.1,27.0,23.8,22.0,75,63,50,29.73,29.47,7,1,9,0.01
2013-3-26,42.7,36.3,31.7,31.0,25.6,18.0,82,67,37,29.84,29.58,5,1,12,0.00
2013-3-27,46.8,36.7,28.2,28.0,23.2,20.0,79,60,38,29.92,29.82,6,1,9,0.00
2013-3-28,43.8,37.8,32.6,32.0,28.9,26.0,80,71,61,30.08,29.91,4,1,9,0.00
2013-3-29,48.7,38.7,33.4,29.0,27.5,26.0,78,65,44,30.11,30.05,6,1,11,0.00
2013-3-30,53.4,41.4,32.5,30.0,24.3,18.0,82,55,27,30.12,30.04,5,1,11,0.00
2013-3-31,51.9,39.9,30.8,38.0,28.0,21.0,96,65,38,30.10,29.69,10,1,16,0.38
2013-4-1,51.9,39.6,28.3,43.0,30.8,13.0,97,73,41,29.84,29.56,9,2,19,0.02
2013-4-2,35.9,29.7,24.7,17.0,11.9,8.0,64,48,34,30.00,29.83,14,3,16,0.00
2013-4-3,39.6,30.9,25.6,17.0,13.8,12.0,71,50,37,30.25,29.99,12,2,15,0.00
2013-4-4,51.2,37.9,24.3,20.0,17.4,12.0,74,46,25,30.35,30.00,6,2,10,0.00
2013-4-5,55.1,41.4,31.0,25.0,19.2,15.0,62,43,27,30.00,29.71,7,2,13,0.00
2013-4-6,45.4,35.2,26.6,20.0,10.3,1.0,65,39,16,30.28,29.95,15,2,16,0.00
2013-4-7,56.7,44.5,32.1,38.0,25.4,10.0,84,49,32,30.25,29.93,10,2,18,0.00
2013-4-8,59.0,50.8,39.6,39.0,37.1,36.0,88,62,44,30.05,29.95,8,2,10,0.00
2013-4-9,66.7,58.5,48.9,47.0,42.6,37.0,88,58,35,29.96,29.83,9,2,13,0.00
2013-4-10,54.3,50.3,46.7,51.0,48.6,42.0,98,94,68,29.94,29.79,3,0,5,0.64
2013-4-11,50.7,43.9,33.5,50.0,38.9,22.0,98,84,42,30.05,29.81,4,0,7,0.09
2013-4-12,37.4,36.2,33.5,37.0,34.9,33.0,98,95,86,30.05,29.75,5,1,10,0.63
2013-4-13,49.6,41.2,34.6,40.0,36.2,33.0,99,84,54,29.92,29.77,5,0,6,0.02
2013-4-14,46.2,40.3,32.7,35.0,28.7,24.0,92,65,45,30.20,29.91,6,1,12,0.00
2013-4-15,57.2,43.9,31.8,35.0,29.9,24.0,86,60,41,30.35,30.20,5,1,10,0.00
2013-4-16,56.1,49.3,41.7,54.0,43.2,30.0,96,80,59,30.33,30.08,4,0,8,0.09
2013-4-17,62.7,52.8,43.4,54.0,36.2,29.0,96,57,28,30.28,30.08,7,1,11,0.02
2013-4-18,56.0,48.1,41.5,48.0,36.8,29.0,96,67,42,30.32,30.07,9,2,16,0.01
2013-4-19,65.3,58.2,48.5,61.0,56.6,48.0,98,94,85,30.06,29.55,7,1,12,0.64
2013-4-20,55.9,45.2,34.3,55.0,32.5,19.0,98,65,36,30.26,29.62,8,2,12,0.23
2013-4-21,49.3,38.6,30.0,24.0,19.0,15.0,68,47,27,30.62,30.27,7,2,13,0.00
2013-4-22,52.8,43.5,34.4,33.0,23.2,15.0,73,46,30,30.67,30.48,8,2,12,0.00
2013-4-23,46.5,39.2,30.5,39.0,32.9,27.0,91,78,73,30.49,30.13,4,1,7,0.00
2013-4-24,69.2,52.3,34.2,51.0,42.2,33.0,97,72,45,30.11,29.74,8,2,10,0.00
2013-4-25,58.5,48.4,40.4,52.0,29.2,19.0,85,51,24,30.24,29.75,9,2,13,0.02
2013-4-26,57.0,46.6,37.6,35.0,30.5,28.0,71,55,37,30.41,30.24,6,2,12,0.00
2013-4-27,61.6,49.2,34.2,33.0,29.3,24.0,77,49,30,30.43,30.27,8,1,11,0.00
2013-4-28,68.3,55.3,42.7,40.0,34.0,30.0,69,47,28,30.29,30.12,6,2,13,0.00
2013-4-29,52.8,49.8,47.3,47.0,43.5,32.0,96,80,48,30.21,30.15,6,0,9,0.09
2013-4-30,65.3,54.0,46.2,48.0,41.4,32.0,96,67,36,30.29,30.19,7,1,8,0.01
2013-5-1,69.3,56.4,43.3,38.0,32.9,25.0,72,45,20,30.43,30.29,8,2,13,0.00
2013-5-2,75.1,60.4,44.6,42.0,37.8,33.0,75,47,23,30.42,30.26,9,1,10,0.00
2013-5-3,66.1,57.1,48.3,43.0,33.8,29.0,65,43,27,30.42,30.29,10,2,12,0.00
2013-5-4,70.1,57.4,42.4,45.0,40.4,38.0,86,56,33,30.33,30.16,7,1,10,0.00
2013-5-5,67.0,54.2,41.3,43.0,37.1,27.0,91,58,23,30.25,30.14,7,1,10,0.00
2013-5-6,67.2,54.4,39.8,48.0,40.6,36.0,90,63,33,30.22,30.09,5,1,8,0.00
2013-5-7,73.1,61.0,47.9,54.0,48.7,40.0,95,68,31,30.13,30.03,8,1,11,0.00
2013-5-8,62.5,59.7,56.8,60.0,56.7,54.0,95,90,81,30.10,29.94,5,1,11,0.25
2013-5-9,62.2,56.8,51.3,58.0,53.8,50.0,96,90,73,29.97,29.85,3,0,6,0.05
2013-5-10,72.5,61.8,50.3,57.0,53.3,49.0,97,76,49,29.96,29.83,4,1,6,0.00
2013-5-11,64.3,59.8,55.9,62.0,58.5,55.0,99,95,79,29.83,29.65,4,0,5,0.34
2013-5-12,58.4,51.2,39.9,55.0,42.2,26.0,99,76,35,29.84,29.61,7,1,10,0.02
2013-5-13,47.5,41.7,35.2,36.0,28.6,25.0,81,61,44,30.07,29.83,7,1,13,0.00
2013-5-14,55.0,44.4,33.5,30.0,26.5,18.0,87,54,25,30.09,30.00,5,1,8,0.00
2013-5-15,61.7,48.2,36.3,52.0,40.0,29.0,94,74,48,30.05,29.64,3,0,7,0.05
2013-5-16,76.7,64.6,51.8,50.0,39.5,34.0,94,44,21,29.81,29.68,5,1,9,0.00
2013-5-17,66.5,56.9,48.4,41.0,38.3,35.0,70,51,33,30.19,29.81,4,0,12,0.00
2013-5-18,63.9,55.3,44.4,48.0,43.0,39.0,84,65,45,30.27,30.19,3,0,6,0.00
2013-5-19,54.4,53.3,50.3,54.0,51.8,45.0,99,94,81,30.29,30.14,3,0,3,0.34
2013-5-20,76.5,64.2,52.0,66.0,60.0,52.0,99,87,66,30.14,29.92,4,0,6,0.01
2013-5-21,84.9,71.8,59.9,70.0,64.4,59.0,97,80,48,29.94,29.75,2,0,7,0.00
2013-5-22,72.3,68.2,62.8,70.0,65.7,61.0,96,91,75,29.84,29.77,2,0,6,0.01
2013-5-23,71.0,65.9,60.4,66.0,62.2,57.0,99,88,75,29.82,29.69,4,0,5,0.49
2013-5-24,61.9,50.1,40.4,61.0,48.9,39.0,99,96,89,29.94,29.63,4,1,12,0.62
2013-5-25,43.8,41.6,39.9,42.0,40.3,39.0,98,95,90,29.95,29.86,5,1,13,0.70
2013-5-26,55.0,47.3,40.2,43.0,39.4,36.0,96,75,51,30.15,29.87,7,1,12,0.04
2013-5-27,68.8,54.6,41.5,43.0,37.9,31.0,88,58,26,30.20,30.10,5,1,9,0.00
2013-5-28,62.7,52.9,45.2,53.0,45.4,37.0,98,79,39,30.19,30.11,2,0,3,0.14
2013-5-29,75.4,62.9,53.4,69.0,60.6,53.0,99,92,79,30.11,29.95,2,0,8,0.95
2013-5-30,84.5,71.6,60.6,70.0,64.4,60.0,99,80,51,30.08,30.01,2,0,6,0.00
2013-5-31,86.6,74.4,62.9,68.0,63.5,59.0,95,72,40,30.08,29.92,4,0,6,0.00
2013-6-1,85.9,75.0,64.4,69.0,64.5,60.0,86,71,46,29.96,29.83,3,0,7,0.00
2013-6-2,81.8,71.2,65.3,70.0,67.0,64.0,96,87,64,29.83,29.69,5,0,8,0.13
2013-6-3,70.4,63.4,53.7,64.0,58.0,44.0,98,83,56,29.88,29.76,4,0,6,0.04
2013-6-4,68.4,58.3,49.4,44.0,39.3,33.0,72,52,28,30.10,29.88,7,1,9,0.00
2013-6-5,68.1,58.6,46.6,50.0,43.9,38.0,83,60,42,30.18,30.07,5,0,6,0.00
2013-6-6,64.2,57.2,53.3,55.0,50.4,47.0,97,78,64,30.12,30.01,3,0,7,0.05
2013-6-7,56.9,55.3,53.5,56.0,54.8,53.0,99,98,96,30.00,29.71,2,0,4,1.27
2013-6-8,71.9,61.3,54.6,62.0,57.7,54.0,99,88,61,30.03,29.64,3,0,6,0.54
2013-6-9,74.6,62.6,51.9,59.0,55.4,51.0,97,79,47,30.16,30.03,3,0,6,0.00
2013-6-10,61.1,59.0,56.2,61.0,57.8,54.0,98,96,91,30.16,29.84,3,0,7,0.86
2013-6-11,69.3,62.1,57.9,67.0,60.4,55.0,99,94,79,29.84,29.56,4,0,7,0.92
2013-6-12,67.4,60.6,54.4,57.0,53.1,51.0,95,77,57,29.83,29.62,4,1,9,0.01
2013-6-13,56.0,53.8,51.3,55.0,52.7,50.0,98,96,91,29.82,29.59,6,0,9,0.52
2013-6-14,67.7,56.4,48.9,59.0,53.9,48.0,98,92,62,29.86,29.62,3,0,11,1.16
2013-6-15,73.0,62.4,51.9,55.0,49.9,43.0,95,67,39,29.97,29.86,4,1,8,0.00
2013-6-16,69.6,61.5,51.3,62.0,55.3,47.0,90,80,63,29.95,29.71,6,0,6,0.00
2013-6-17,80.0,66.7,58.8,63.0,59.3,54.0,95,80,44,29.88,29.78,6,0,12,0.10
2013-6-18,68.5,61.1,55.2,64.0,58.9,48.0,98,92,77,29.90,29.83,2,0,5,0.21
2013-6-19,69.4,59.5,51.5,52.0,47.0,41.0,87,66,37,30.16,29.90,3,0,9,0.01
2013-6-20,73.8,61.4,48.2,58.0,51.3,45.0,89,71,47,30.24,30.16,4,0,5,0.00
2013-6-21,75.8,67.2,56.6,66.0,61.0,54.0,92,81,65,30.23,30.17,3,0,5,0.00
2013-6-22,79.0,69.4,59.9,65.0,61.8,58.0,94,78,56,30.19,30.06,3,0,5,0.00
2013-6-23,85.5,74.5,65.2,72.0,65.8,63.0,93,76,47,30.11,29.98,4,1,7,0.00
2013-6-24,86.3,73.7,66.0,72.0,67.1,61.0,94,80,54,30.01,29.90,2,0,5,0.06
2013-6-25,84.6,73.6,64.8,72.0,65.6,59.0,89,77,53,29.96,29.73,3,0,7,0.01
2013-6-26,76.8,71.6,65.9,69.0,66.4,63.0,93,84,71,29.79,29.73,2,0,4,0.00
2013-6-27,77.8,70.2,62.0,70.0,65.8,60.0,96,86,71,29.79,29.51,3,0,8,0.04
2013-6-28,77.4,70.0,63.9,69.0,66.1,63.0,98,88,67,29.49,29.39,8,1,14,1.38
2013-6-29,76.4,68.1,60.0,66.0,62.9,59.0,97,85,62,29.66,29.44,3,0,7,0.00
2013-6-30,79.9,68.4,63.0,70.0,64.9,61.0,97,88,69,29.89,29.66,3,0,8,0.51
2013-7-1,72.2,68.4,64.4,70.0,67.8,64.0,99,97,92,30.00,29.87,1,0,3,0.72
2013-7-2,76.9,71.8,69.0,74.0,70.9,69.0,99,97,86,30.11,29.99,3,0,4,0.36
2013-7-3,77.4,72.0,68.3,74.0,70.7,68.0,99,95,86,30.17,30.10,0,0,2,0.28
2013-7-4,83.7,74.8,67.2,74.0,70.3,67.0,99,86,66,30.18,30.08,3,0,7,0.00
2013-7-5,85.5,77.2,70.5,74.0,71.4,69.0,96,83,60,30.14,30.02,3,0,7,0.00
2013-7-6,84.2,76.1,71.3,71.0,69.5,68.0,92,81,59,30.06,29.98,4,0,6,0.00
2013-7-7,86.5,76.1,68.8,77.0,71.8,67.0,95,87,63,30.02,29.87,3,0,6,0.00
2013-7-8,82.5,72.6,68.2,71.0,67.8,66.0,98,86,59,30.00,29.89,2,0,5,0.56
2013-7-9,78.8,71.4,64.8,72.0,68.6,64.0,99,91,73,30.04,29.95,2,0,4,0.01
2013-7-10,76.8,71.9,67.5,75.0,70.5,67.0,98,95,86,29.96,29.75,1,0,3,0.07
2013-7-11,77.8,70.8,65.6,70.0,65.5,60.0,98,84,62,29.92,29.73,3,0,4,0.02
2013-7-12,75.6,69.2,63.3,66.0,61.3,57.0,83,76,65,30.12,29.91,2,0,5,0.01
2013-7-13,70.6,66.7,62.3,70.0,65.1,59.0,98,95,74,30.27,30.12,1,0,2,0.19
2013-7-14,80.8,73.6,65.6,75.0,70.7,65.0,99,91,80,30.31,30.19,3,0,4,0.01
2013-7-15,86.3,76.7,69.4,75.0,68.9,63.0,97,78,52,30.21,30.12,2,0,7,0.00
2013-7-16,86.3,77.1,68.4,71.0,66.5,62.0,88,71,45,30.18,30.11,2,0,8,0.00
2013-7-17,87.0,77.5,67.8,74.0,69.6,65.0,91,78,52,30.18,30.01,2,0,5,0.00
2013-7-18,88.7,78.1,71.6,75.0,71.5,69.0,96,81,53,30.02,29.91,2,0,4,0.06
2013-7-19,89.5,79.5,70.6,75.0,71.3,69.0,96,77,55,29.93,29.72,3,0,8,0.01
2013-7-20,84.1,75.8,67.4,72.0,68.4,59.0,90,78,58,29.81,29.67,3,0,4,0.00
2013-7-21,77.3,69.5,62.5,67.0,62.1,55.0,97,78,64,29.95,29.82,3,0,4,0.06
2013-7-22,77.3,69.3,63.2,71.0,66.1,62.0,98,90,64,29.95,29.78,3,0,5,0.35
2013-7-23,79.1,71.8,66.1,73.0,69.9,65.0,99,94,75,29.78,29.53,3,0,5,0.67
2013-7-24,74.2,66.6,56.6,67.0,59.9,50.0,98,80,57,29.95,29.58,3,0,8,0.01
2013-7-25,66.4,59.9,53.5,59.0,52.7,46.0,89,77,66,30.05,29.94,3,0,5,0.00
2013-7-26,73.3,64.9,57.4,62.0,58.7,54.0,93,81,64,30.04,29.97,3,0,5,0.00
2013-7-27,76.8,67.7,57.1,64.0,60.3,55.0,95,79,54,30.02,29.92,4,0,6,0.00
2013-7-28,67.4,65.3,62.8,67.0,63.5,60.0,98,94,82,29.95,29.90,2,0,2,0.35
2013-7-29,76.2,66.9,59.6,66.0,60.9,52.0,99,83,45,30.08,29.92,3,0,5,0.01
2013-7-30,71.7,63.4,55.0,60.0,56.5,53.0,94,79,59,30.14,30.07,3,0,5,0.00
2013-7-31,73.3,65.4,55.9,63.0,58.7,54.0,95,80,63,30.14,30.01,3,0,4,0.00
2013-8-1,67.1,62.9,60.9,64.0,61.5,59.0,98,95,90,30.01,29.82,2,0,8,0.39
2013-8-2,75.4,65.4,57.3,65.0,60.1,56.0,99,85,51,29.87,29.78,5,0,5,0.04
2013-8-3,76.2,64.9,57.9,62.0,57.3,52.0,97,78,48,29.87,29.79,3,0,5,0.01
2013-8-4,71.7,62.6,56.6,60.0,54.3,51.0,91,75,55,29.94,29.82,3,0,8,0.09
2013-8-5,70.9,61.0,52.7,53.0,48.8,44.0,85,66,42,30.03,29.94,4,0,6,0.00
2013-8-6,71.6,62.2,50.8,60.0,53.0,48.0,92,74,48,30.10,30.04,2,0,5,0.00
2013-8-7,66.7,63.6,60.6,64.0,61.2,57.0,98,92,82,30.11,30.03,1,0,3,0.13
2013-8-8,75.7,69.4,64.4,71.0,67.9,64.0,99,95,81,30.02,29.95,2,0,4,0.05
2013-8-9,75.4,70.7,66.8,75.0,70.3,67.0,100,98,95,29.95,29.75,2,0,3,1.22
2013-8-10,74.9,66.2,57.2,66.0,59.4,52.0,98,81,53,30.03,29.83,3,0,8,0.08
2013-8-11,72.8,61.9,50.6,61.0,54.8,49.0,94,79,54,30.09,29.99,3,0,5,0.00
2013-8-12,73.8,65.0,57.6,63.0,58.8,53.0,92,81,62,30.02,29.90,3,0,4,0.00
2013-8-13,70.7,65.1,61.8,68.0,63.4,60.0,98,94,86,29.90,29.64,2,0,4,0.32
2013-8-14,65.5,57.7,49.2,61.0,52.0,48.0,98,82,62,30.00,29.73,3,1,7,0.05
2013-8-15,69.4,59.2,49.8,55.0,51.0,47.0,94,76,49,30.12,30.01,4,0,6,0.02
2013-8-16,71.3,61.3,52.7,60.0,54.6,50.0,93,80,58,30.19,30.11,4,0,6,0.00
2013-8-17,73.0,62.7,53.5,61.0,56.3,52.0,95,81,59,30.27,30.19,3,0,4,0.00
2013-8-18,69.2,63.1,57.7,63.0,59.3,55.0,94,88,75,30.25,30.09,0,0,2,0.00
2013-8-19,73.8,65.4,59.2,65.0,60.3,56.0,94,84,63,30.09,29.99,2,0,3,0.00
2013-8-20,78.6,67.4,57.7,64.0,59.7,56.0,97,78,52,30.12,30.02,2,0,6,0.00
2013-8-21,79.5,68.3,58.3,68.0,61.8,56.0,94,81,55,30.15,30.01,2,0,3,0.00
2013-8-22,80.6,71.2,62.5,72.0,65.6,60.0,93,83,56,30.04,29.82,3,0,5,0.00
2013-8-23,73.0,66.9,60.7,65.0,57.2,50.0,86,72,49,30.12,29.85,3,0,3,0.01
2013-8-24,71.3,62.3,54.5,58.0,53.1,48.0,90,73,57,30.33,30.12,3,0,4,0.00
2013-8-25,75.5,64.0,53.5,61.0,55.3,51.0,94,75,51,30.36,30.17,2,0,4,0.00
2013-8-26,71.7,66.0,61.3,68.0,63.6,55.0,98,92,78,30.18,29.86,1,0,3,0.15
2013-8-27,76.3,69.2,64.8,70.0,66.3,63.0,99,91,71,29.89,29.80,2,0,4,0.21
2013-8-28,79.0,68.6,62.0,70.0,65.5,61.0,99,90,66,29.88,29.82,4,0,4,0.28
2013-8-29,72.1,66.5,63.6,67.0,64.7,63.0,98,94,83,30.00,29.88,3,0,5,0.05
2013-8-30,78.3,69.8,62.0,69.0,65.7,61.0,98,87,68,29.99,29.80,3,0,4,0.00
2013-8-31,80.8,71.6,66.5,74.0,68.9,64.0,97,91,72,29.80,29.72,1,0,5,0.05
2013-9-1,77.8,71.1,65.7,72.0,69.1,65.0,99,93,80,29.82,29.76,3,0,4,0.03
2013-9-2,73.7,68.8,63.6,71.0,68.1,63.0,99,98,90,29.78,29.66,2,0,4,0.21
2013-9-3,72.0,63.3,58.5,64.0,60.3,56.0,100,90,61,29.85,29.70,3,0,6,0.27
2013-9-4,74.7,64.2,57.5,59.0,56.4,54.0,94,77,48,29.94,29.84,4,0,7,0.36
2013-9-5,66.9,60.6,51.9,60.0,49.7,41.0,95,70,41,30.14,29.86,3,0,10,0.31
2013-9-6,62.0,52.7,43.2,50.0,43.1,38.0,91,71,51,30.25,30.10,3,0,5,0.21
2013-9-7,70.2,58.5,47.1,62.0,52.2,44.0,92,81,46,30.11,29.86,2,0,4,0.16
2013-9-8,68.8,60.4,51.5,63.0,52.4,40.0,98,77,47,30.08,29.79,5,0,8,0.03
2013-9-9,65.2,54.9,42.6,56.0,47.4,40.0,92,76,60,30.22,30.08,3,0,4,0.00
2013-9-10,75.2,66.3,60.1,73.0,64.7,57.0,99,94,87,30.11,30.01,1,0,2,0.12
2013-9-11,87.4,74.8,66.1,78.0,71.5,65.0,99,90,64,30.06,29.93,5,0,8,0.03
2013-9-12,79.5,68.6,63.8,74.0,67.2,63.0,99,95,79,29.94,29.64,3,0,6,0.10
2013-9-13,67.6,60.5,51.2,63.0,56.8,46.0,99,88,71,29.82,29.59,2,0,7,0.10
2013-9-14,60.9,52.4,46.7,49.0,45.7,43.0,91,79,62,30.10,29.82,4,1,8,0.06
2013-9-15,62.7,52.5,40.6,54.0,47.1,39.0,93,83,63,30.18,30.06,3,0,4,0.05
2013-9-16,61.9,55.8,47.7,54.0,50.2,41.0,98,82,67,30.26,30.03,3,0,6,0.04
2013-9-17,59.5,49.1,41.3,45.0,39.5,33.0,92,72,40,30.42,30.26,3,0,7,0.03
2013-9-18,64.4,51.7,41.0,53.0,45.6,39.0,95,81,55,30.34,30.16,3,0,5,0.03
2013-9-19,69.2,56.8,46.5,57.0,50.2,44.0,94,80,51,30.16,30.05,3,0,5,0.03
2013-9-20,71.8,60.4,50.6,58.0,54.0,49.0,96,81,49,30.06,29.95,3,0,4,0.04
2013-9-21,67.7,61.2,55.1,63.0,58.2,54.0,98,90,75,29.96,29.61,5,1,9,0.04
2013-9-22,59.2,55.0,49.4,58.0,49.0,40.0,98,81,59,29.88,29.60,5,1,9,0.03
2013-9-23,59.1,49.4,41.2,44.0,40.3,36.0,89,72,52,30.04,29.87,5,0,8,0.04
2013-9-24,67.5,52.1,38.7,46.0,39.9,36.0,95,67,32,30.04,29.88,4,0,6,0.03
2013-9-25,64.7,53.3,42.6,54.0,46.9,40.0,96,80,59,29.95,29.87,3,0,5,0.03
2013-9-26,62.6,53.8,47.2,53.0,49.5,46.0,97,86,67,30.12,29.96,4,0,5,0.03
2013-9-27,60.9,52.8,45.1,52.0,48.9,43.0,98,87,73,30.27,30.11,5,0,7,0.03
2013-9-28,66.0,54.7,45.3,53.0,48.4,44.0,97,81,49,30.34,30.23,3,0,5,0.04
2013-9-29,66.6,55.4,48.1,55.0,50.7,47.0,97,85,63,30.23,30.06,4,0,6,0.02
2013-9-30,66.8,56.1,47.5,55.0,51.0,46.0,97,85,61,30.08,29.96,4,0,6,0.02
2013-10-1,71.6,58.8,48.7,60.0,53.8,47.0,96,85,64,30.00,29.89,3,0,6,0.03
2013-10-2,75.9,64.4,53.7,62.0,56.7,50.0,95,77,56,29.99,29.89,4,1,7,0.01
2013-10-3,72.3,61.0,50.6,57.0,49.9,35.0,89,70,26,30.09,29.99,3,0,7,0.01
2013-10-4,70.6,62.0,56.8,62.0,57.7,52.0,98,86,70,30.04,29.97,4,0,6,0.01
2013-10-5,64.8,60.6,57.5,63.0,59.8,57.0,99,97,92,30.08,30.01,2,0,3,0.01
2013-10-6,60.0,58.0,56.8,60.0,57.7,56.0,99,99,97,30.09,30.03,2,0,5,0.01
2013-10-7,67.1,60.7,51.9,67.0,59.4,46.0,100,95,75,30.02,29.64,9,1,12,0.01
2013-10-8,63.9,53.1,44.3,47.0,43.3,39.0,90,72,41,30.34,29.91,4,1,9,0.01
2013-10-9,59.4,49.4,41.4,46.0,41.8,39.0,95,77,48,30.43,30.33,5,1,10,0.00
2013-10-10,56.3,48.8,41.2,49.0,43.7,39.0,94,83,69,30.33,30.15,2,0,3,0.01
2013-10-11,68.8,56.6,46.5,56.0,45.4,36.0,78,67,52,30.14,30.05,6,1,9,0.01
2013-10-12,69.8,57.4,46.1,54.0,47.5,37.0,89,71,54,30.31,30.12,6,1,12,0.00
2013-10-13,62.3,54.3,45.9,51.0,48.7,44.0,96,82,61,30.38,30.30,4,1,7,0.01
2013-10-14,63.8,55.9,48.4,53.0,49.9,47.0,93,81,62,30.35,30.21,5,0,7,0.00
2013-10-15,66.7,59.1,52.8,57.0,53.2,46.0,93,81,65,30.24,30.10,4,1,7,0.01
2013-10-16,58.8,54.8,49.2,54.0,49.5,39.0,93,82,59,30.09,29.87,3,0,4,0.01
2013-10-17,69.8,61.3,53.8,59.0,53.5,48.0,97,78,47,29.87,29.59,6,0,7,0.00
2013-10-18,62.5,55.4,47.4,60.0,45.4,36.0,98,71,39,29.93,29.57,8,1,13,0.01
2013-10-19,59.9,50.5,41.1,48.0,41.9,38.0,93,74,48,29.94,29.71,6,1,10,0.00
2013-10-20,56.8,49.4,42.2,48.0,37.2,33.0,90,65,41,30.02,29.69,9,1,10,0.00
2013-10-21,62.6,51.1,40.3,45.0,37.9,36.0,89,64,40,30.09,29.93,7,1,10,0.01
2013-10-22,59.3,49.8,42.7,48.0,41.3,31.0,88,73,51,29.92,29.69,3,0,9,0.00
2013-10-23,48.6,41.3,35.4,39.0,34.7,31.0,92,78,50,29.79,29.60,3,0,6,0.00
2013-10-24,47.8,39.6,32.5,36.0,29.1,25.0,92,69,43,29.91,29.71,10,1,13,0.01
2013-10-25,47.2,40.7,35.1,34.0,30.2,28.0,78,67,49,30.16,29.92,5,1,15,0.00
2013-10-26,50.4,42.3,32.5,33.0,28.9,25.0,89,62,39,30.15,29.83,8,1,12,0.00
2013-10-27,51.2,44.4,37.5,34.0,30.7,27.0,77,60,42,30.07,29.79,7,1,10,0.01
2013-10-28,56.0,43.5,35.2,35.0,32.2,29.0,82,66,44,30.31,30.06,3,1,9,0.00
2013-10-29,45.8,37.6,33.3,30.0,27.6,25.0,81,68,48,30.41,30.32,6,1,8,0.00
2013-10-30,52.2,42.7,34.9,41.0,37.2,28.0,94,81,65,30.33,30.17,4,0,7,0.01
2013-10-31,57.7,48.7,40.1,57.0,48.1,39.0,99,97,94,30.22,29.72,6,0,11,0.00
2013-11-1,64.4,58.8,50.0,61.0,52.4,43.0,98,80,52,29.72,29.43,13,2,19,0.01
2013-11-2,59.6,49.0,42.1,49.0,42.9,40.0,94,80,54,29.75,29.58,5,0,8,0.01
2013-11-3,45.1,36.5,28.5,42.0,29.7,20.0,88,76,67,30.45,29.75,5,1,9,0.01
2013-11-4,38.8,31.6,26.1,22.0,18.3,12.0,75,60,36,30.66,30.46,6,1,7,0.34
2013-11-5,48.8,39.8,29.0,38.0,31.8,21.0,84,73,60,30.66,30.46,5,1,8,0.87
2013-11-6,54.2,48.4,40.5,48.0,43.1,38.0,93,82,73,30.47,29.99,6,1,13,0.10
2013-11-7,55.9,48.0,35.8,52.0,42.9,29.0,97,83,68,29.98,29.73,9,2,16,0.10
2013-11-8,42.0,37.3,35.1,34.0,28.6,26.0,86,71,59,30.13,29.85,5,1,13,0.03
2013-11-9,42.4,38.7,34.8,29.0,27.7,25.0,77,65,55,30.22,29.94,7,1,11,0.01
2013-11-10,46.1,41.2,37.5,40.0,33.3,29.0,91,74,62,29.94,29.77,11,2,18,0.02
2013-11-11,46.8,42.3,37.1,32.0,28.5,25.0,75,59,45,30.13,29.91,8,1,14,0.02
2013-11-12,42.5,31.0,25.2,34.0,20.1,14.0,79,64,53,30.24,29.90,9,2,17,0.04
2013-11-13,33.6,27.1,21.1,20.0,14.4,10.0,73,60,40,30.34,30.19,7,2,13,0.00
2013-11-14,52.7,39.8,28.9,23.0,15.5,9.0,70,39,23,30.18,30.07,7,1,11,0.15
2013-11-15,54.8,44.2,34.0,23.0,17.6,12.0,47,35,22,30.19,30.10,4,0,8,0.09
2013-11-16,56.3,46.7,38.2,40.0,34.2,19.0,89,64,40,30.28,30.16,6,1,7,0.01
2013-11-17,55.7,49.3,41.5,55.0,48.3,37.0,99,96,82,30.24,29.72,5,1,13,0.22
2013-11-18,59.2,52.5,40.1,56.0,40.7,28.0,98,67,39,29.72,29.51,7,2,16,0.37
2013-11-19,40.0,34.8,28.4,31.0,23.6,19.0,72,64,56,30.34,29.71,11,3,17,0.08
2013-11-20,36.8,28.4,22.2,20.0,16.2,12.0,77,62,36,30.62,30.34,5,1,7,0.01
2013-11-21,41.2,33.1,23.1,33.0,23.6,15.0,82,69,49,30.63,30.37,4,0,8,0.04
2013-11-22,51.1,44.3,38.4,47.0,41.6,33.0,98,90,81,30.38,29.86,3,0,8,0.08
2013-11-23,45.8,33.2,20.5,40.0,23.0,8.0,88,67,46,30.00,29.83,6,2,13,0.01
2013-11-24,23.0,18.9,14.9,11.0,6.1,2.0,76,58,41,30.28,29.91,10,3,22,0.00
2013-11-25,29.7,23.8,14.3,17.0,12.2,7.0,80,62,50,30.42,30.25,5,1,9,0.00
2013-11-26,34.2,29.7,25.8,34.0,26.5,12.0,98,89,51,30.28,29.91,4,0,6,0.05
2013-11-27,45.8,37.9,28.8,46.0,35.7,22.0,99,92,73,29.88,29.36,7,2,15,2.48
2013-11-28,28.6,23.9,20.1,22.0,14.6,10.0,78,68,54,30.44,29.63,8,2,15,0.00
2013-11-29,30.9,23.8,18.2,19.0,15.6,8.0,85,72,55,30.72,30.44,5,0,9,0.01
2013-11-30,29.0,21.7,13.3,24.0,13.0,9.0,86,70,54,30.76,30.39,4,1,7,0.00
2013-12-1,38.1,34.0,28.9,30.0,28.9,24.0,89,82,70,30.38,30.00,4,0,6,0.00
2013-12-2,39.0,33.9,31.2,35.0,31.1,29.0,95,89,83,30.00,29.87,2,0,3,0.00
2013-12-3,42.7,35.1,29.5,36.0,32.5,29.0,97,90,74,29.99,29.88,3,0,5,0.00
2013-12-4,42.5,34.9,28.8,37.0,31.7,28.0,97,88,71,30.14,29.99,3,0,5,0.00
2013-12-5,49.1,46.0,40.8,49.0,45.2,37.0,99,97,84,30.13,29.89,3,0,5,0.18
2013-12-6,50.3,40.5,30.5,50.0,37.7,26.0,99,90,54,30.13,29.84,3,0,5,0.26
2013-12-7,34.3,29.4,22.7,30.0,24.3,17.0,97,81,61,30.48,30.09,4,0,10,0.05
2013-12-8,26.4,23.7,19.3,21.0,18.8,16.0,88,82,70,30.58,30.42,4,0,5,0.00
2013-12-9,33.2,29.4,23.3,33.0,28.5,21.0,98,96,89,30.41,29.91,2,0,4,0.00
2013-12-10,32.4,28.4,21.6,31.0,25.2,15.0,96,88,71,30.00,29.81,3,0,7,0.00
2013-12-11,27.8,23.0,19.5,18.0,16.1,15.0,88,75,59,30.21,30.01,4,1,9,0.00
2013-12-12,21.0,16.4,11.9,16.0,8.4,5.0,86,72,53,30.31,30.05,4,0,9,0.00
2013-12-13,27.0,22.1,12.9,17.0,13.1,8.0,80,69,60,30.33,30.00,8,2,13,0.00
2013-12-14,20.7,14.1,9.4,20.0,10.7,7.0,95,86,70,30.51,30.00,5,0,8,0.00
2013-12-15,32.8,26.9,21.2,29.0,23.2,18.0,96,86,66,29.97,29.55,5,1,15,0.00
2013-12-16,27.5,19.4,9.1,18.0,9.7,5.0,85,66,51,30.19,29.73,7,1,13,0.00
2013-12-17,21.4,13.9,3.5,20.0,11.7,1.0,93,91,85,30.21,29.97,0,0,1,0.00
2013-12-18,31.4,22.8,12.3,24.0,19.0,10.0,95,86,66,30.09,29.94,4,0,8,0.00
2013-12-19,41.3,31.6,20.7,30.0,24.9,18.0,89,76,57,30.11,29.95,3,0,6,0.25
2013-12-20,49.0,42.0,34.6,42.0,36.1,31.0,89,80,69,30.08,29.90,7,1,10,0.60
2013-12-21,56.6,50.0,46.3,51.0,46.8,40.0,98,89,77,29.91,29.81,3,1,9,0.05
2013-12-22,61.4,57.7,50.8,58.0,54.7,50.0,98,90,80,29.89,29.70,7,1,13,0.01
2013-12-23,56.2,43.5,31.8,53.0,41.4,25.0,99,92,74,30.11,29.86,3,0,8,0.38
2013-12-24,31.8,27.3,16.8,25.0,19.4,7.0,86,72,60,30.28,30.07,8,1,13,0.00
2013-12-25,21.7,17.1,12.8,10.0,6.7,2.0,73,64,52,30.50,30.28,6,1,9,0.00
2013-12-26,29.5,24.6,19.5,25.0,18.9,10.0,90,79,66,30.41,30.12,3,0,7,0.00
2013-12-27,32.4,28.5,23.5,25.0,21.5,17.0,86,75,62,30.29,30.21,6,1,6,0.01
2013-12-28,46.7,34.1,25.6,31.0,27.3,23.0,91,77,52,30.21,30.00,5,0,12,0.00
2013-12-29,41.2,37.3,34.0,37.0,33.5,30.0,98,86,72,30.02,29.50,3,0,6,0.80
2013-12-30,37.7,27.1,12.9,35.0,20.1,7.0,97,75,62,30.16,29.63,7,1,12,0.05
2013-12-31,22.0,16.5,10.6,20.0,12.2,7.0,92,83,65,30.21,30.01,6,1,13,0.00
2014-1-1,23.8,19.2,14.3,16.0,11.0,8.0,92,71,53,30.37,30.21,4,1,9,0.00
2014-1-2,17.2,14.5,12.3,15.0,12.3,10.0,92,91,87,30.28,29.78,1,0,7,0.00